sensor_id;sensor_type;location;lat;lon;timestamp;temperature;humidity
80234;DHT22;69712;42.142;24.766;2023-06-10T00:02:12;21.40;59.40
80234;DHT22;69712;42.142;24.766;2023-06-10T00:04:38;21.40;59.50
80234;DHT22;69712;42.142;24.766;2023-06-10T00:07:05;21.20;59.90
80234;DHT22;69712;42.142;24.766;2023-06-10T00:09:37;21.10;60.20
80234;DHT22;69712;42.142;24.766;2023-06-10T00:12:09;21.10;60.20
80234;DHT22;69712;42.142;24.766;2023-06-10T00:14:37;21.10;60.30
80234;DHT22;69712;42.142;24.766;2023-06-10T00:17:04;21.10;60.00
80234;DHT22;69712;42.142;24.766;2023-06-10T00:19:30;21.20;59.60
80234;DHT22;69712;42.142;24.766;2023-06-10T00:21:59;21.30;59.50
80234;DHT22;69712;42.142;24.766;2023-06-10T00:24:25;21.30;59.40
80234;DHT22;69712;42.142;24.766;2023-06-10T00:26:54;21.30;59.10
80234;DHT22;69712;42.142;24.766;2023-06-10T00:29:26;21.30;59.00
80234;DHT22;69712;42.142;24.766;2023-06-10T00:31:52;21.20;59.20
80234;DHT22;69712;42.142;24.766;2023-06-10T00:34:25;21.30;59.20
80234;DHT22;69712;42.142;24.766;2023-06-10T00:36:51;21.30;58.90
80234;DHT22;69712;42.142;24.766;2023-06-10T00:39:17;21.30;59.00
80234;DHT22;69712;42.142;24.766;2023-06-10T00:41:43;21.30;59.10
80234;DHT22;69712;42.142;24.766;2023-06-10T00:44:09;21.10;59.60
80234;DHT22;69712;42.142;24.766;2023-06-10T00:46:35;21.10;59.60
80234;DHT22;69712;42.142;24.766;2023-06-10T00:49:01;20.90;60.00
80234;DHT22;69712;42.142;24.766;2023-06-10T00:51:31;21.00;60.00
80234;DHT22;69712;42.142;24.766;2023-06-10T00:54:07;20.90;59.80
80234;DHT22;69712;42.142;24.766;2023-06-10T00:56:33;21.00;59.80
80234;DHT22;69712;42.142;24.766;2023-06-10T00:59:00;21.00;59.70
80234;DHT22;69712;42.142;24.766;2023-06-10T01:01:28;21.10;59.60
80234;DHT22;69712;42.142;24.766;2023-06-10T01:03:55;21.00;59.80
80234;DHT22;69712;42.142;24.766;2023-06-10T01:09:24;21.00;59.50
80234;DHT22;69712;42.142;24.766;2023-06-10T01:12:19;21.00;59.40
80234;DHT22;69712;42.142;24.766;2023-06-10T01:14:47;21.10;59.20
80234;DHT22;69712;42.142;24.766;2023-06-10T01:17:14;21.20;59.00
80234;DHT22;69712;42.142;24.766;2023-06-10T01:19:42;21.10;58.90
80234;DHT22;69712;42.142;24.766;2023-06-10T01:22:09;21.20;58.70
80234;DHT22;69712;42.142;24.766;2023-06-10T01:24:42;21.20;58.80
80234;DHT22;69712;42.142;24.766;2023-06-10T01:27:12;21.10;59.20
80234;DHT22;69712;42.142;24.766;2023-06-10T01:29:50;21.10;60.00
80234;DHT22;69712;42.142;24.766;2023-06-10T01:32:35;21.00;59.30
80234;DHT22;69712;42.142;24.766;2023-06-10T01:35:10;20.90;59.50
80234;DHT22;69712;42.142;24.766;2023-06-10T01:37:46;21.00;59.60
80234;DHT22;69712;42.142;24.766;2023-06-10T01:40:13;21.10;59.40
80234;DHT22;69712;42.142;24.766;2023-06-10T01:42:40;21.00;59.60
80234;DHT22;69712;42.142;24.766;2023-06-10T01:45:06;21.00;59.80
80234;DHT22;69712;42.142;24.766;2023-06-10T01:47:32;20.80;60.10
80234;DHT22;69712;42.142;24.766;2023-06-10T01:49:58;20.80;60.20
80234;DHT22;69712;42.142;24.766;2023-06-10T01:52:27;20.80;60.20
80234;DHT22;69712;42.142;24.766;2023-06-10T01:54:53;20.70;60.30
80234;DHT22;69712;42.142;24.766;2023-06-10T01:57:19;20.80;60.00
80234;DHT22;69712;42.142;24.766;2023-06-10T01:59:52;20.70;60.20
80234;DHT22;69712;42.142;24.766;2023-06-10T02:02:19;20.80;60.00
80234;DHT22;69712;42.142;24.766;2023-06-10T02:04:45;20.80;60.00
80234;DHT22;69712;42.142;24.766;2023-06-10T02:07:11;20.80;60.00
80234;DHT22;69712;42.142;24.766;2023-06-10T02:09:37;20.80;59.80
80234;DHT22;69712;42.142;24.766;2023-06-10T02:12:03;20.80;59.70
80234;DHT22;69712;42.142;24.766;2023-06-10T02:14:32;20.80;60.00
80234;DHT22;69712;42.142;24.766;2023-06-10T02:16:58;20.90;59.90
80234;DHT22;69712;42.142;24.766;2023-06-10T02:19:23;20.90;59.80
80234;DHT22;69712;42.142;24.766;2023-06-10T02:21:55;20.80;60.10
80234;DHT22;69712;42.142;24.766;2023-06-10T02:24:21;20.80;60.50
80234;DHT22;69712;42.142;24.766;2023-06-10T02:26:47;20.60;60.80
80234;DHT22;69712;42.142;24.766;2023-06-10T02:29:13;20.30;61.50
80234;DHT22;69712;42.142;24.766;2023-06-10T02:31:39;20.40;61.40
80234;DHT22;69712;42.142;24.766;2023-06-10T02:34:09;20.60;60.80
80234;DHT22;69712;42.142;24.766;2023-06-10T02:36:41;20.70;60.30
80234;DHT22;69712;42.142;24.766;2023-06-10T02:39:07;20.60;60.60
80234;DHT22;69712;42.142;24.766;2023-06-10T02:41:38;20.70;60.60
80234;DHT22;69712;42.142;24.766;2023-06-10T02:44:07;20.60;60.60
80234;DHT22;69712;42.142;24.766;2023-06-10T02:46:33;20.70;60.60
80234;DHT22;69712;42.142;24.766;2023-06-10T02:49:02;20.70;60.50
80234;DHT22;69712;42.142;24.766;2023-06-10T02:51:30;20.70;60.50
80234;DHT22;69712;42.142;24.766;2023-06-10T02:53:56;20.80;60.50
80234;DHT22;69712;42.142;24.766;2023-06-10T02:56:22;20.80;60.60
80234;DHT22;69712;42.142;24.766;2023-06-10T02:58:48;20.80;60.70
80234;DHT22;69712;42.142;24.766;2023-06-10T03:01:17;20.80;60.60
80234;DHT22;69712;42.142;24.766;2023-06-10T03:03:45;20.70;60.60
80234;DHT22;69712;42.142;24.766;2023-06-10T03:06:12;21.00;60.10
80234;DHT22;69712;42.142;24.766;2023-06-10T03:08:39;20.40;61.20
80234;DHT22;69712;42.142;24.766;2023-06-10T03:11:06;20.40;61.50
80234;DHT22;69712;42.142;24.766;2023-06-10T03:13:34;20.50;61.20
80234;DHT22;69712;42.142;24.766;2023-06-10T03:16:06;20.50;61.10
80234;DHT22;69712;42.142;24.766;2023-06-10T03:18:33;20.50;61.30
80234;DHT22;69712;42.142;24.766;2023-06-10T03:21:02;20.50;60.70
80234;DHT22;69712;42.142;24.766;2023-06-10T03:23:30;20.50;60.80
80234;DHT22;69712;42.142;24.766;2023-06-10T03:26:02;20.60;61.40
80234;DHT22;69712;42.142;24.766;2023-06-10T03:28:30;20.70;61.50
80234;DHT22;69712;42.142;24.766;2023-06-10T03:30:56;20.60;61.40
80234;DHT22;69712;42.142;24.766;2023-06-10T03:33:22;20.50;61.10
80234;DHT22;69712;42.142;24.766;2023-06-10T03:35:48;20.20;62.10
80234;DHT22;69712;42.142;24.766;2023-06-10T03:38:14;20.20;62.30
80234;DHT22;69712;42.142;24.766;2023-06-10T03:40:40;20.20;62.30
80234;DHT22;69712;42.142;24.766;2023-06-10T03:43:05;20.50;62.00
80234;DHT22;69712;42.142;24.766;2023-06-10T03:45:31;20.60;61.80
80234;DHT22;69712;42.142;24.766;2023-06-10T03:47:57;20.40;61.90
80234;DHT22;69712;42.142;24.766;2023-06-10T03:50:23;20.60;61.40
80234;DHT22;69712;42.142;24.766;2023-06-10T03:52:50;20.80;61.00
80234;DHT22;69712;42.142;24.766;2023-06-10T03:55:16;20.60;61.60
80234;DHT22;69712;42.142;24.766;2023-06-10T03:57:43;20.50;61.80
80234;DHT22;69712;42.142;24.766;2023-06-10T04:00:09;20.60;61.50
80234;DHT22;69712;42.142;24.766;2023-06-10T04:02:39;20.60;61.50
80234;DHT22;69712;42.142;24.766;2023-06-10T04:05:15;20.40;62.20
80234;DHT22;69712;42.142;24.766;2023-06-10T04:07:42;19.90;63.70
80234;DHT22;69712;42.142;24.766;2023-06-10T04:10:10;19.80;64.30
80234;DHT22;69712;42.142;24.766;2023-06-10T04:12:37;19.70;64.70
80234;DHT22;69712;42.142;24.766;2023-06-10T04:15:04;19.90;64.50
80234;DHT22;69712;42.142;24.766;2023-06-10T04:17:30;20.10;63.70
80234;DHT22;69712;42.142;24.766;2023-06-10T04:19:56;20.30;62.90
80234;DHT22;69712;42.142;24.766;2023-06-10T04:22:22;20.10;63.10
80234;DHT22;69712;42.142;24.766;2023-06-10T04:24:48;19.90;64.20
80234;DHT22;69712;42.142;24.766;2023-06-10T04:27:14;19.90;63.90
80234;DHT22;69712;42.142;24.766;2023-06-10T04:29:40;20.10;63.30
80234;DHT22;69712;42.142;24.766;2023-06-10T04:32:06;20.30;63.00
80234;DHT22;69712;42.142;24.766;2023-06-10T04:34:35;20.20;62.80
80234;DHT22;69712;42.142;24.766;2023-06-10T04:37:01;20.40;62.60
80234;DHT22;69712;42.142;24.766;2023-06-10T04:39:27;20.50;62.00
80234;DHT22;69712;42.142;24.766;2023-06-10T04:41:53;20.70;61.70
80234;DHT22;69712;42.142;24.766;2023-06-10T04:44:18;20.70;61.50
80234;DHT22;69712;42.142;24.766;2023-06-10T04:46:44;20.50;62.00
80234;DHT22;69712;42.142;24.766;2023-06-10T04:49:11;20.30;62.50
80234;DHT22;69712;42.142;24.766;2023-06-10T04:51:39;20.20;62.80
80234;DHT22;69712;42.142;24.766;2023-06-10T04:54:05;20.50;62.40
80234;DHT22;69712;42.142;24.766;2023-06-10T04:56:32;20.60;61.80
80234;DHT22;69712;42.142;24.766;2023-06-10T04:58:58;20.40;62.40
80234;DHT22;69712;42.142;24.766;2023-06-10T05:01:23;20.50;62.20
80234;DHT22;69712;42.142;24.766;2023-06-10T05:03:49;20.90;61.50
80234;DHT22;69712;42.142;24.766;2023-06-10T05:06:15;21.20;60.50
80234;DHT22;69712;42.142;24.766;2023-06-10T05:08:41;21.60;59.30
80234;DHT22;69712;42.142;24.766;2023-06-10T05:11:06;21.60;59.10
80234;DHT22;69712;42.142;24.766;2023-06-10T05:13:32;21.90;58.20
80234;DHT22;69712;42.142;24.766;2023-06-10T05:15:58;22.10;57.80
80234;DHT22;69712;42.142;24.766;2023-06-10T05:18:24;22.30;56.70
80234;DHT22;69712;42.142;24.766;2023-06-10T05:20:50;22.60;55.90
80234;DHT22;69712;42.142;24.766;2023-06-10T05:23:15;22.70;55.60
80234;DHT22;69712;42.142;24.766;2023-06-10T05:25:41;23.00;55.00
80234;DHT22;69712;42.142;24.766;2023-06-10T05:28:08;23.20;54.20
80234;DHT22;69712;42.142;24.766;2023-06-10T05:30:36;23.40;53.40
80234;DHT22;69712;42.142;24.766;2023-06-10T05:33:02;23.50;53.10
80234;DHT22;69712;42.142;24.766;2023-06-10T05:35:28;23.70;52.90
80234;DHT22;69712;42.142;24.766;2023-06-10T05:37:54;23.80;52.20
80234;DHT22;69712;42.142;24.766;2023-06-10T05:40:20;24.10;52.00
80234;DHT22;69712;42.142;24.766;2023-06-10T05:42:45;24.20;50.40
80234;DHT22;69712;42.142;24.766;2023-06-10T05:45:11;24.30;50.00
80234;DHT22;69712;42.142;24.766;2023-06-10T05:47:37;24.40;50.00
80234;DHT22;69712;42.142;24.766;2023-06-10T05:50:03;24.60;50.50
80234;DHT22;69712;42.142;24.766;2023-06-10T05:52:33;24.50;50.90
80234;DHT22;69712;42.142;24.766;2023-06-10T05:54:59;24.70;50.30
80234;DHT22;69712;42.142;24.766;2023-06-10T05:57:25;24.70;50.40
80234;DHT22;69712;42.142;24.766;2023-06-10T05:59:51;24.80;50.10
80234;DHT22;69712;42.142;24.766;2023-06-10T06:02:17;24.70;49.70
80234;DHT22;69712;42.142;24.766;2023-06-10T06:04:43;24.50;49.10
80234;DHT22;69712;42.142;24.766;2023-06-10T06:07:09;24.50;50.00
80234;DHT22;69712;42.142;24.766;2023-06-10T06:09:34;24.40;48.20
80234;DHT22;69712;42.142;24.766;2023-06-10T06:12:00;24.40;47.90
80234;DHT22;69712;42.142;24.766;2023-06-10T06:14:26;24.40;48.10
80234;DHT22;69712;42.142;24.766;2023-06-10T06:16:52;24.50;47.80
80234;DHT22;69712;42.142;24.766;2023-06-10T06:19:17;24.40;48.10
80234;DHT22;69712;42.142;24.766;2023-06-10T06:21:43;24.50;49.20
80234;DHT22;69712;42.142;24.766;2023-06-10T06:24:09;24.50;51.90
80234;DHT22;69712;42.142;24.766;2023-06-10T06:26:34;24.50;51.60
80234;DHT22;69712;42.142;24.766;2023-06-10T06:29:00;24.40;51.10
80234;DHT22;69712;42.142;24.766;2023-06-10T06:31:26;24.40;50.20
80234;DHT22;69712;42.142;24.766;2023-06-10T06:33:52;24.50;49.30
80234;DHT22;69712;42.142;24.766;2023-06-10T06:36:17;24.60;48.80
80234;DHT22;69712;42.142;24.766;2023-06-10T06:38:43;24.80;49.50
80234;DHT22;69712;42.142;24.766;2023-06-10T06:41:09;24.90;48.90
80234;DHT22;69712;42.142;24.766;2023-06-10T06:43:34;25.00;48.70
80234;DHT22;69712;42.142;24.766;2023-06-10T06:46:00;25.00;48.40
80234;DHT22;69712;42.142;24.766;2023-06-10T06:48:26;25.10;49.10
80234;DHT22;69712;42.142;24.766;2023-06-10T06:50:51;25.50;49.20
80234;DHT22;69712;42.142;24.766;2023-06-10T06:53:17;25.90;49.40
80234;DHT22;69712;42.142;24.766;2023-06-10T06:55:43;26.70;45.90
80234;DHT22;69712;42.142;24.766;2023-06-10T06:58:08;28.80;45.10
80234;DHT22;69712;42.142;24.766;2023-06-10T07:00:34;30.00;40.10
80234;DHT22;69712;42.142;24.766;2023-06-10T07:03:00;30.80;36.40
80234;DHT22;69712;42.142;24.766;2023-06-10T07:05:26;31.20;38.80
80234;DHT22;69712;42.142;24.766;2023-06-10T07:07:53;29.90;38.00
80234;DHT22;69712;42.142;24.766;2023-06-10T07:10:22;29.40;39.50
80234;DHT22;69712;42.142;24.766;2023-06-10T07:12:48;29.40;40.00
80234;DHT22;69712;42.142;24.766;2023-06-10T07:15:14;28.70;42.70
80234;DHT22;69712;42.142;24.766;2023-06-10T07:17:40;28.20;43.00
80234;DHT22;69712;42.142;24.766;2023-06-10T07:20:06;27.90;43.30
80234;DHT22;69712;42.142;24.766;2023-06-10T07:22:32;27.60;43.90
80234;DHT22;69712;42.142;24.766;2023-06-10T07:24:58;27.60;42.70
80234;DHT22;69712;42.142;24.766;2023-06-10T07:27:24;27.70;45.50
80234;DHT22;69712;42.142;24.766;2023-06-10T07:29:50;27.90;42.20
80234;DHT22;69712;42.142;24.766;2023-06-10T07:32:16;28.00;43.50
80234;DHT22;69712;42.142;24.766;2023-06-10T07:34:42;28.10;42.00
80234;DHT22;69712;42.142;24.766;2023-06-10T07:37:08;28.30;42.50
80234;DHT22;69712;42.142;24.766;2023-06-10T07:39:34;29.00;40.80
80234;DHT22;69712;42.142;24.766;2023-06-10T07:42:00;29.50;40.10
80234;DHT22;69712;42.142;24.766;2023-06-10T07:44:26;30.50;38.40
80234;DHT22;69712;42.142;24.766;2023-06-10T07:46:52;31.60;35.80
80234;DHT22;69712;42.142;24.766;2023-06-10T07:49:17;32.70;36.90
80234;DHT22;69712;42.142;24.766;2023-06-10T07:51:43;34.30;32.10
80234;DHT22;69712;42.142;24.766;2023-06-10T07:54:09;35.20;30.30
80234;DHT22;69712;42.142;24.766;2023-06-10T07:56:35;34.40;31.10
80234;DHT22;69712;42.142;24.766;2023-06-10T07:59:00;34.10;32.30
80234;DHT22;69712;42.142;24.766;2023-06-10T08:01:26;34.50;31.80
80234;DHT22;69712;42.142;24.766;2023-06-10T08:03:52;35.00;29.50
80234;DHT22;69712;42.142;24.766;2023-06-10T08:06:17;34.20;29.90
80234;DHT22;69712;42.142;24.766;2023-06-10T08:08:44;35.90;29.00
80234;DHT22;69712;42.142;24.766;2023-06-10T08:11:11;37.00;27.10
80234;DHT22;69712;42.142;24.766;2023-06-10T08:13:37;37.30;27.60
80234;DHT22;69712;42.142;24.766;2023-06-10T08:16:03;37.30;28.00
80234;DHT22;69712;42.142;24.766;2023-06-10T08:18:29;35.40;28.50
80234;DHT22;69712;42.142;24.766;2023-06-10T08:20:55;34.60;29.30
80234;DHT22;69712;42.142;24.766;2023-06-10T08:23:20;34.70;29.60
80234;DHT22;69712;42.142;24.766;2023-06-10T08:25:46;34.10;29.40
80234;DHT22;69712;42.142;24.766;2023-06-10T08:28:12;33.30;31.70
80234;DHT22;69712;42.142;24.766;2023-06-10T08:30:38;33.00;32.30
80234;DHT22;69712;42.142;24.766;2023-06-10T08:33:03;33.00;32.80
80234;DHT22;69712;42.142;24.766;2023-06-10T08:35:29;32.20;34.00
80234;DHT22;69712;42.142;24.766;2023-06-10T08:37:55;31.70;33.90
80234;DHT22;69712;42.142;24.766;2023-06-10T08:40:21;31.80;33.50
80234;DHT22;69712;42.142;24.766;2023-06-10T08:43:00;31.30;35.60
80234;DHT22;69712;42.142;24.766;2023-06-10T08:45:31;31.80;33.90
80234;DHT22;69712;42.142;24.766;2023-06-10T08:47:57;32.80;31.60
80234;DHT22;69712;42.142;24.766;2023-06-10T08:50:25;33.40;31.40
80234;DHT22;69712;42.142;24.766;2023-06-10T08:52:54;34.50;29.60
80234;DHT22;69712;42.142;24.766;2023-06-10T08:55:29;35.60;28.40
80234;DHT22;69712;42.142;24.766;2023-06-10T08:57:56;37.10;27.90
80234;DHT22;69712;42.142;24.766;2023-06-10T09:00:22;37.20;26.70
80234;DHT22;69712;42.142;24.766;2023-06-10T09:02:48;38.80;25.40
80234;DHT22;69712;42.142;24.766;2023-06-10T09:05:16;39.80;24.50
80234;DHT22;69712;42.142;24.766;2023-06-10T09:07:41;40.10;23.50
80234;DHT22;69712;42.142;24.766;2023-06-10T09:10:08;39.70;23.80
80234;DHT22;69712;42.142;24.766;2023-06-10T09:12:34;39.60;24.30
80234;DHT22;69712;42.142;24.766;2023-06-10T09:15:01;39.50;23.30
80234;DHT22;69712;42.142;24.766;2023-06-10T09:17:28;39.30;22.50
80234;DHT22;69712;42.142;24.766;2023-06-10T09:19:54;38.00;24.40
80234;DHT22;69712;42.142;24.766;2023-06-10T09:22:24;36.60;25.20
80234;DHT22;69712;42.142;24.766;2023-06-10T09:25:02;35.10;26.10
80234;DHT22;69712;42.142;24.766;2023-06-10T09:27:30;33.80;26.90
80234;DHT22;69712;42.142;24.766;2023-06-10T09:29:57;32.30;28.30
80234;DHT22;69712;42.142;24.766;2023-06-10T09:32:23;31.50;28.70
80234;DHT22;69712;42.142;24.766;2023-06-10T09:34:50;31.30;29.70
80234;DHT22;69712;42.142;24.766;2023-06-10T09:37:23;31.40;29.40
80234;DHT22;69712;42.142;24.766;2023-06-10T09:40:08;31.50;29.50
80234;DHT22;69712;42.142;24.766;2023-06-10T09:42:39;31.70;29.20
80234;DHT22;69712;42.142;24.766;2023-06-10T09:45:06;31.40;30.40
80234;DHT22;69712;42.142;24.766;2023-06-10T09:47:32;30.70;30.30
80234;DHT22;69712;42.142;24.766;2023-06-10T09:49:58;31.00;31.10
80234;DHT22;69712;42.142;24.766;2023-06-10T09:52:25;31.00;30.00
80234;DHT22;69712;42.142;24.766;2023-06-10T09:54:52;31.60;29.70
80234;DHT22;69712;42.142;24.766;2023-06-10T09:57:18;32.30;29.00
80234;DHT22;69712;42.142;24.766;2023-06-10T09:59:45;33.40;29.80
80234;DHT22;69712;42.142;24.766;2023-06-10T10:02:17;34.40;29.90
80234;DHT22;69712;42.142;24.766;2023-06-10T10:04:43;34.50;29.70
80234;DHT22;69712;42.142;24.766;2023-06-10T10:07:10;34.50;29.80
80234;DHT22;69712;42.142;24.766;2023-06-10T10:09:41;34.00;30.10
80234;DHT22;69712;42.142;24.766;2023-06-10T10:12:11;33.40;30.70
80234;DHT22;69712;42.142;24.766;2023-06-10T10:14:38;32.90;30.90
80234;DHT22;69712;42.142;24.766;2023-06-10T10:17:08;32.10;32.00
80234;DHT22;69712;42.142;24.766;2023-06-10T10:19:40;31.60;33.20
80234;DHT22;69712;42.142;24.766;2023-06-10T10:22:08;31.40;33.90
80234;DHT22;69712;42.142;24.766;2023-06-10T10:24:44;31.20;34.20
80234;DHT22;69712;42.142;24.766;2023-06-10T10:27:18;32.70;32.90
80234;DHT22;69712;42.142;24.766;2023-06-10T10:29:46;34.10;30.10
80234;DHT22;69712;42.142;24.766;2023-06-10T10:32:13;34.60;29.20
80234;DHT22;69712;42.142;24.766;2023-06-10T10:34:50;33.40;29.60
80234;DHT22;69712;42.142;24.766;2023-06-10T10:37:20;33.00;30.60
80234;DHT22;69712;42.142;24.766;2023-06-10T10:39:45;33.20;30.60
80234;DHT22;69712;42.142;24.766;2023-06-10T10:42:12;33.60;29.90
80234;DHT22;69712;42.142;24.766;2023-06-10T10:44:39;33.30;30.10
80234;DHT22;69712;42.142;24.766;2023-06-10T10:47:08;33.20;30.80
80234;DHT22;69712;42.142;24.766;2023-06-10T10:49:35;33.10;30.40
80234;DHT22;69712;42.142;24.766;2023-06-10T10:52:02;33.20;30.10
80234;DHT22;69712;42.142;24.766;2023-06-10T10:54:35;33.30;29.70
80234;DHT22;69712;42.142;24.766;2023-06-10T10:57:15;33.00;30.40
80234;DHT22;69712;42.142;24.766;2023-06-10T10:59:45;32.40;30.60
80234;DHT22;69712;42.142;24.766;2023-06-10T11:02:18;32.10;31.80
80234;DHT22;69712;42.142;24.766;2023-06-10T11:04:48;31.70;32.00
80234;DHT22;69712;42.142;24.766;2023-06-10T11:07:14;31.40;31.60
80234;DHT22;69712;42.142;24.766;2023-06-10T11:12:41;31.40;31.60
80234;DHT22;69712;42.142;24.766;2023-06-10T11:15:08;31.30;31.80
80234;DHT22;69712;42.142;24.766;2023-06-10T11:17:33;31.30;31.80
80234;DHT22;69712;42.142;24.766;2023-06-10T11:19:59;31.10;32.50
80234;DHT22;69712;42.142;24.766;2023-06-10T11:22:25;30.30;34.00
80234;DHT22;69712;42.142;24.766;2023-06-10T11:24:51;30.00;35.10
80234;DHT22;69712;42.142;24.766;2023-06-10T11:30:18;30.20;34.30
80234;DHT22;69712;42.142;24.766;2023-06-10T11:32:50;31.20;33.10
80234;DHT22;69712;42.142;24.766;2023-06-10T11:35:18;32.80;30.20
80234;DHT22;69712;42.142;24.766;2023-06-10T11:37:43;34.20;29.20
80234;DHT22;69712;42.142;24.766;2023-06-10T11:40:10;35.20;28.70
80234;DHT22;69712;42.142;24.766;2023-06-10T11:42:43;36.20;26.70
80234;DHT22;69712;42.142;24.766;2023-06-10T11:45:09;36.80;26.00
80234;DHT22;69712;42.142;24.766;2023-06-10T11:47:35;36.80;26.20
80234;DHT22;69712;42.142;24.766;2023-06-10T11:50:01;36.40;25.50
80234;DHT22;69712;42.142;24.766;2023-06-10T11:52:31;36.90;25.90
80234;DHT22;69712;42.142;24.766;2023-06-10T11:55:05;36.80;26.30
80234;DHT22;69712;42.142;24.766;2023-06-10T11:57:34;37.30;24.90
80234;DHT22;69712;42.142;24.766;2023-06-10T12:00:07;37.90;24.50
80234;DHT22;69712;42.142;24.766;2023-06-10T12:02:32;38.00;24.80
80234;DHT22;69712;42.142;24.766;2023-06-10T12:05:11;38.10;24.50
80234;DHT22;69712;42.142;24.766;2023-06-10T12:07:36;38.00;24.80
80234;DHT22;69712;42.142;24.766;2023-06-10T12:10:02;38.30;24.40
80234;DHT22;69712;42.142;24.766;2023-06-10T12:12:28;38.70;24.00
80234;DHT22;69712;42.142;24.766;2023-06-10T12:14:58;39.00;23.90
80234;DHT22;69712;42.142;24.766;2023-06-10T12:19:57;38.10;24.20
80234;DHT22;69712;42.142;24.766;2023-06-10T12:22:23;37.20;25.10
80234;DHT22;69712;42.142;24.766;2023-06-10T12:25:01;36.10;26.40
80234;DHT22;69712;42.142;24.766;2023-06-10T12:27:28;35.00;27.00
80234;DHT22;69712;42.142;24.766;2023-06-10T12:29:55;33.40;28.90
80234;DHT22;69712;42.142;24.766;2023-06-10T12:32:38;32.40;30.50
80234;DHT22;69712;42.142;24.766;2023-06-10T12:35:06;31.50;31.90
80234;DHT22;69712;42.142;24.766;2023-06-10T12:37:32;30.00;34.40
80234;DHT22;69712;42.142;24.766;2023-06-10T12:40:01;29.20;36.10
80234;DHT22;69712;42.142;24.766;2023-06-10T12:42:29;28.40;37.40
80234;DHT22;69712;42.142;24.766;2023-06-10T12:44:56;28.00;38.40
80234;DHT22;69712;42.142;24.766;2023-06-10T12:47:36;27.90;38.40
80234;DHT22;69712;42.142;24.766;2023-06-10T12:50:03;27.70;38.30
80234;DHT22;69712;42.142;24.766;2023-06-10T12:52:29;27.30;39.00
80234;DHT22;69712;42.142;24.766;2023-06-10T12:54:55;28.30;38.20
80234;DHT22;69712;42.142;24.766;2023-06-10T12:57:22;29.60;35.10
80234;DHT22;69712;42.142;24.766;2023-06-10T12:59:48;30.40;34.30
80234;DHT22;69712;42.142;24.766;2023-06-10T13:02:22;31.30;32.70
80234;DHT22;69712;42.142;24.766;2023-06-10T13:04:50;33.60;29.90
80234;DHT22;69712;42.142;24.766;2023-06-10T13:07:16;34.20;28.60
80234;DHT22;69712;42.142;24.766;2023-06-10T13:09:43;33.40;29.20
80234;DHT22;69712;42.142;24.766;2023-06-10T13:12:09;34.40;27.80
80234;DHT22;69712;42.142;24.766;2023-06-10T13:14:36;35.50;26.90
80234;DHT22;69712;42.142;24.766;2023-06-10T13:17:04;35.70;26.70
80234;DHT22;69712;42.142;24.766;2023-06-10T13:19:31;34.70;26.90
80234;DHT22;69712;42.142;24.766;2023-06-10T13:21:57;33.00;29.10
80234;DHT22;69712;42.142;24.766;2023-06-10T13:24:23;32.70;28.90
80234;DHT22;69712;42.142;24.766;2023-06-10T13:26:49;32.30;29.40
80234;DHT22;69712;42.142;24.766;2023-06-10T13:29:16;31.90;29.70
80234;DHT22;69712;42.142;24.766;2023-06-10T13:31:42;31.30;30.60
80234;DHT22;69712;42.142;24.766;2023-06-10T13:34:08;31.80;29.90
80234;DHT22;69712;42.142;24.766;2023-06-10T13:36:33;32.00;29.70
80234;DHT22;69712;42.142;24.766;2023-06-10T13:38:59;31.80;30.60
80234;DHT22;69712;42.142;24.766;2023-06-10T13:41:25;31.40;30.50
80234;DHT22;69712;42.142;24.766;2023-06-10T13:43:54;31.30;31.00
80234;DHT22;69712;42.142;24.766;2023-06-10T13:46:20;30.20;32.30
80234;DHT22;69712;42.142;24.766;2023-06-10T13:48:47;30.00;33.50
80234;DHT22;69712;42.142;24.766;2023-06-10T13:51:13;29.70;33.60
80234;DHT22;69712;42.142;24.766;2023-06-10T13:53:38;29.60;33.90
80234;DHT22;69712;42.142;24.766;2023-06-10T13:56:05;29.30;34.00
80234;DHT22;69712;42.142;24.766;2023-06-10T13:58:31;28.70;34.70
80234;DHT22;69712;42.142;24.766;2023-06-10T14:00:57;28.30;36.60
80234;DHT22;69712;42.142;24.766;2023-06-10T14:03:24;28.00;35.80
80234;DHT22;69712;42.142;24.766;2023-06-10T14:05:50;27.30;37.00
80234;DHT22;69712;42.142;24.766;2023-06-10T14:08:15;27.40;37.80
80234;DHT22;69712;42.142;24.766;2023-06-10T14:10:42;27.50;37.40
80234;DHT22;69712;42.142;24.766;2023-06-10T14:13:07;27.70;38.00
80234;DHT22;69712;42.142;24.766;2023-06-10T14:15:34;27.80;37.10
80234;DHT22;69712;42.142;24.766;2023-06-10T14:18:01;27.90;36.80
80234;DHT22;69712;42.142;24.766;2023-06-10T14:20:27;27.90;37.00
80234;DHT22;69712;42.142;24.766;2023-06-10T14:22:57;27.90;36.80
80234;DHT22;69712;42.142;24.766;2023-06-10T14:25:23;27.60;36.10
80234;DHT22;69712;42.142;24.766;2023-06-10T14:27:49;27.50;36.50
80234;DHT22;69712;42.142;24.766;2023-06-10T14:30:15;27.60;36.90
80234;DHT22;69712;42.142;24.766;2023-06-10T14:32:41;27.60;37.00
80234;DHT22;69712;42.142;24.766;2023-06-10T14:35:07;27.80;37.60
80234;DHT22;69712;42.142;24.766;2023-06-10T14:37:33;27.70;36.40
80234;DHT22;69712;42.142;24.766;2023-06-10T14:39:58;27.50;36.40
80234;DHT22;69712;42.142;24.766;2023-06-10T14:42:24;27.30;37.00
80234;DHT22;69712;42.142;24.766;2023-06-10T14:44:54;27.20;37.30
80234;DHT22;69712;42.142;24.766;2023-06-10T14:47:20;27.50;36.90
80234;DHT22;69712;42.142;24.766;2023-06-10T14:49:46;27.60;36.30
80234;DHT22;69712;42.142;24.766;2023-06-10T14:52:11;27.80;35.40
80234;DHT22;69712;42.142;24.766;2023-06-10T14:54:37;27.90;35.10
80234;DHT22;69712;42.142;24.766;2023-06-10T14:57:03;28.00;34.20
80234;DHT22;69712;42.142;24.766;2023-06-10T14:59:29;27.90;35.00
80234;DHT22;69712;42.142;24.766;2023-06-10T15:01:54;27.80;35.10
80234;DHT22;69712;42.142;24.766;2023-06-10T15:04:20;27.60;34.90
80234;DHT22;69712;42.142;24.766;2023-06-10T15:06:46;27.30;34.90
80234;DHT22;69712;42.142;24.766;2023-06-10T15:09:14;27.10;34.40
80234;DHT22;69712;42.142;24.766;2023-06-10T15:11:39;27.10;34.50
80234;DHT22;69712;42.142;24.766;2023-06-10T15:14:05;27.20;34.70
80234;DHT22;69712;42.142;24.766;2023-06-10T15:16:31;27.20;33.60
80234;DHT22;69712;42.142;24.766;2023-06-10T15:18:57;27.00;35.10
80234;DHT22;69712;42.142;24.766;2023-06-10T15:21:23;27.00;34.20
80234;DHT22;69712;42.142;24.766;2023-06-10T15:23:48;26.90;34.30
80234;DHT22;69712;42.142;24.766;2023-06-10T15:26:14;26.90;34.40
80234;DHT22;69712;42.142;24.766;2023-06-10T15:28:40;26.90;34.50